7NK1 weather

Deer Run Air Field
Nelson, New York, United States

Public forecast

Using degrees Fahrenheit for public forecast. Weather courtesy of forecast.io.

Closest aviation weather report (METAR) to Deer Run Air Field

Closest report is Syracuse Hancock International Airport, 18.5 nm (34.2 km) WNW. Retrieved 2019/10/18 17:54 UTC (33 minutes ago):

KSYR 181754Z 28013G19KT 10SM OVC027 08/03 A2997 RMK AO2 SLP146 T00780033 10083 20067 53012

Closest aviation forecast (TAF) to Deer Run Air Field

Closest forecast is Syracuse Hancock International Airport, 18.5 nm (34.2 km) WNW. Retrieved 2019/10/18 18:36 UTC (0 seconds ago):

TAF KSYR 181733Z 1818/1918 31007KT P6SM OVC025 FM182300 28003KT P6SM BKN035 FM191000 VRB02KT P6SM SCT070